Latest Weather Observations for Coolangatta

IDQ60801

Issued at 8:35 am EST Tuesday 21 October 2014 (issued every 30 minutes, with the page automatically refreshed every 10 minutes)

About weather observations | Map of weather stations | Latest weather observations for QLD | Other Formats
Station Details ID: 040717 Name: COOLANGATTA Lat: -28.17 Lon: 153.51 Height: 4.0 m
Data from the previous 72 hours. | See also: Recent months at Coolangatta
Date/Time
EST
Temp
°C
App
Temp
°C
Dew
Point
Rel
Hum
%
Delta-T
°C
Wind Press
QNH
hPa
Press
MSL
hPa
Rain
since 9 am
mm
Dir
 
Spd
km/h
Gust
km/h
Spd
kts
Gust
kts
21/08:30am 21.3 17.8 14.5 65 4.0 S 26 43 14 23 1028.0 1028.0 1.4
21/08:08am 21.3 17.3 14.2 64 4.1 S 28 46 15 25 1027.9 1027.9 1.4
21/08:00am 21.1 16.2 13.8 63 4.2 S 32 46 17 25 1027.7 1027.7 1.4
21/07:30am 20.7 17.2 14.6 68 3.5 S 26 37 14 20 1027.3 1027.3 1.4
21/07:00am 20.2 17.5 14.6 70 3.2 S 22 33 12 18 1027.0 1027.0 1.4
21/06:30am 19.4 17.2 14.9 75 2.6 S 20 28 11 15 1026.8 1026.8 1.4
21/06:00am 19.1 17.0 15.2 78 2.3 S 20 32 11 17 1026.6 1026.6 1.4
21/05:30am 18.8 17.0 15.5 81 1.9 S 19 30 10 16 1026.2 1026.2 1.4
21/05:00am 18.7 17.4 15.9 84 1.7 S 17 26 9 14 1025.8 1025.8 1.4
21/04:30am 18.4 17.7 16.4 88 1.2 SSW 15 19 8 10 1025.7 1025.7 1.4
21/04:00am 18.2 17.6 16.7 91 0.9 S 15 20 8 11 1025.5 1025.5 1.4
21/03:30am 18.1 17.1 16.6 91 0.9 S 17 22 9 12 1025.4 1025.4 1.4
21/03:24am 18.1 17.5 16.6 91 0.9 S 15 22 8 12 1025.5 1025.5 1.4
21/03:18am 17.9 17.7 16.6 92 0.8 S 13 17 7 9 1025.6 1025.6 1.4
21/03:14am 18.0 18.2 16.7 92 0.8 S 11 15 6 8 1025.7 1025.7 1.4
21/03:00am 18.2 16.6 16.5 90 1.0 S 20 30 11 16 1025.6 1025.6 1.2
21/02:54am 18.4 16.8 16.4 88 1.2 S 20 30 11 16 1025.7 1025.7 0.0
21/02:30am 19.1 17.6 15.4 79 2.2 SSW 17 24 9 13 1025.4 1025.4 0.0
21/02:00am 18.5 17.7 15.2 81 1.9 SSW 13 19 7 10 1025.4 1025.4 0.0
21/01:30am 18.9 17.9 15.6 81 1.9 SSW 15 20 8 11 1025.8 1025.8 0.0
21/01:00am 18.9 18.0 15.8 82 1.8 SSW 15 19 8 10 1026.0 1026.0 0.0
21/12:30am 18.7 18.2 15.8 83 1.7 S 13 20 7 11 1026.3 1026.3 0.0
21/12:00am 18.8 18.2 15.7 82 1.8 S 13 19 7 10 1026.5 1026.5 0.0
 
Date/Time
EST
Temp
°C
App
Temp
°C
Dew
Point
Rel
Hum
%
Delta-T
°C
Wind Press
QNH
hPa
Press
MSL
hPa
Rain
since 9 am
mm
Dir
 
Spd
km/h
Gust
km/h
Spd
kts
Gust
kts
20/11:30pm 19.1 18.6 15.8 81 2.0 S 13 22 7 12 1026.9 1026.9 0.0
20/11:00pm 19.1 18.0 15.4 79 2.2 S 15 20 8 11 1027.1 1027.1 0.0
20/10:30pm 19.0 18.2 15.1 78 2.3 S 13 19 7 10 1027.2 1027.2 0.0
20/10:00pm 19.0 18.4 14.7 76 2.5 SSW 11 19 6 10 1027.3 1027.3 0.0
20/09:30pm 19.3 17.8 14.3 73 2.9 S 15 20 8 11 1027.2 1027.2 0.0
20/09:00pm 19.3 17.7 13.9 71 3.1 S 15 20 8 11 1027.2 1027.2 0.0
20/08:30pm 19.4 17.7 13.6 69 3.3 S 15 24 8 13 1027.1 1027.1 0.0
20/08:00pm 19.4 17.6 13.3 68 3.4 S 15 20 8 11 1026.9 1026.9 0.0
20/07:30pm 19.4 16.8 13.3 68 3.5 S 19 28 10 15 1026.3 1026.3 0.0
20/07:00pm 19.5 17.3 13.4 68 3.5 S 17 22 9 12 1025.9 1025.9 0.0
20/06:30pm 19.9 17.6 12.9 64 4.0 SSE 17 22 9 12 1025.4 1025.4 0.0
20/06:00pm 20.4 18.1 12.9 62 4.2 SE 17 20 9 11 1024.9 1024.9 0.0
20/05:30pm 21.5 19.8 12.6 57 5.0 ESE 13 17 7 9 1024.4 1024.4 0.0
20/05:00pm 22.2 20.6 12.7 55 5.4 E 13 17 7 9 1024.0 1024.0 0.0
20/04:30pm 22.5 20.9 12.7 54 5.6 NE 13 19 7 10 1023.6 1023.6 0.0
20/04:00pm 22.3 21.3 12.3 53 5.6 NE 9 15 5 8 1023.4 1023.4 0.0
20/03:30pm 22.8 21.1 12.4 52 5.9 NNE 13 17 7 9 1023.0 1023.0 0.0
20/03:00pm 22.8 20.6 12.1 51 6.0 NNE 15 20 8 11 1022.9 1022.9 0.0
20/02:30pm 22.8 20.1 11.8 50 6.2 NNE 17 20 9 11 1023.0 1023.0 0.0
20/02:00pm 23.2 20.8 12.8 52 5.9 NE 17 22 9 12 1023.2 1023.2 0.0
20/01:30pm 22.9 20.2 12.8 53 5.8 NE 19 24 10 13 1023.4 1023.4 0.0
20/01:00pm 23.6 20.9 13.5 53 5.8 NE 20 26 11 14 1023.7 1023.7 0.0
20/12:30pm 22.7 19.6 12.3 52 5.9 NE 20 26 11 14 1024.0 1024.0 0.0
20/12:00pm 23.0 19.3 12.6 52 5.9 NNE 24 30 13 16 1024.1 1024.1 0.0
20/11:30am 22.4 18.7 12.6 54 5.6 NNE 24 30 13 16 1024.4 1024.4 0.0
20/11:00am 22.9 19.0 12.2 51 6.0 NNE 24 30 13 16 1024.8 1024.8 0.0
20/10:30am 22.4 18.5 12.1 52 5.8 NNE 24 28 13 15 1025.0 1025.0 0.0
20/10:00am 22.4 19.0 12.4 53 5.6 N 22 26 12 14 1025.5 1025.5 0.0
20/09:30am 22.4 19.4 12.4 53 5.7 N 20 26 11 14 1025.6 1025.6 0.0
20/09:00am 22.2 19.2 12.7 55 5.4 N 20 24 11 13 1025.8 1025.8 0.0
20/08:30am 21.8 18.8 11.8 53 5.6 N 19 24 10 13 1025.6 1025.6 0.0
20/08:00am 21.3 19.0 11.9 55 5.2 NNW 15 20 8 11 1025.6 1025.6 0.0
20/07:30am 20.6 19.2 12.3 59 4.7 NW 11 17 6 9 1025.6 1025.6 0.0
20/07:00am 18.3 18.2 13.2 72 2.9 WSW 6 7 3 4 1025.7 1025.7 0.0
20/06:30am 15.4 16.4 13.2 87 1.2 CALM 0 0 0 0 1025.4 1025.4 0.0
20/06:00am 13.9 14.9 13.1 95 0.4 CALM 0 0 0 0 1025.3 1025.3 0.0
20/05:30am 12.0 11.2 11.1 94 0.5 SW 6 7 3 4 1025.0 1025.0 0.0
20/05:24am 11.6 10.7 10.8 95 0.4 SW 6 7 3 4 1025.0 1025.0 0.0
20/05:00am 11.6 11.8 10.7 94 0.5 CALM 0 0 0 0 1024.9 1024.9 0.0
20/04:58am 11.7 12.0 10.8 94 0.5 CALM 0 0 0 0 1024.9 1024.9 0.0
20/04:30am 11.7 11.2 10.6 93 0.6 SW 4 6 2 3 1024.9 1024.9 0.0
20/04:00am 12.4 12.5 11.5 94 0.5 SW 2 6 1 3 1024.8 1024.8 0.0
20/03:30am 12.1 12.4 10.8 92 0.7 CALM 0 0 0 0 1024.6 1024.6 0.0
20/03:00am 12.0 11.5 10.7 92 0.7 SW 4 7 2 4 1024.7 1024.7 0.0
20/02:30am 12.5 12.1 11.2 92 0.7 SW 4 7 2 4 1024.8 1024.8 0.0
20/02:00am 12.6 11.9 11.5 93 0.6 SSW 6 7 3 4 1025.0 1025.0 0.0
20/01:30am 12.2 11.3 10.6 90 0.8 SW 6 7 3 4 1025.4 1025.4 0.0
20/01:00am 12.5 11.7 10.9 90 0.8 SSW 6 7 3 4 1025.8 1025.8 0.0
20/12:30am 13.4 13.2 11.8 90 0.9 SSW 4 7 2 4 1026.1 1026.1 0.0
20/12:00am 13.5 13.3 11.7 89 1.0 SW 4 7 2 4 1026.3 1026.3 0.0
 
Date/Time
EST
Temp
°C
App
Temp
°C
Dew
Point
Rel
Hum
%
Delta-T
°C
Wind Press
QNH
hPa
Press
MSL
hPa
Rain
since 9 am
mm
Dir
 
Spd
km/h
Gust
km/h
Spd
kts
Gust
kts
19/11:30pm 13.6 14.1 11.5 87 1.1 CALM 0 0 0 0 1026.7 1026.7 0.0
19/11:00pm 13.7 13.1 11.6 87 1.1 SW 6 7 3 4 1026.9 1026.9 0.0
19/10:30pm 14.1 14.5 11.4 84 1.4 CALM 0 0 0 0 1027.0 1027.0 0.0
19/10:00pm 14.3 13.5 11.6 84 1.4 SW 7 11 4 6 1027.0 1027.0 0.0
19/09:30pm 14.6 13.8 11.6 82 1.6 WSW 7 11 4 6 1026.9 1026.9 0.0
19/09:00pm 15.6 14.0 11.6 77 2.1 WSW 11 13 6 7 1026.9 1026.9 0.0
19/08:30pm 16.1 14.6 11.9 76 2.3 WSW 11 11 6 6 1026.8 1026.8 0.0
19/08:00pm 15.8 15.0 11.8 77 2.2 WSW 7 11 4 6 1026.4 1026.4 0.0
19/07:30pm 17.2 15.7 10.6 65 3.5 ESE 9 13 5 7 1026.2 1026.2 0.0
19/07:00pm 17.9 16.5 10.8 63 3.8 ESE 9 13 5 7 1025.9 1025.9 0.0
19/06:30pm 19.2 17.0 10.7 58 4.6 ESE 13 15 7 8 1025.6 1025.6 0.0
19/06:00pm 19.8 16.8 10.5 55 5.0 ESE 17 20 9 11 1025.3 1025.3 0.0
19/05:30pm 20.7 17.2 10.2 51 5.7 SE 19 24 10 13 1025.1 1025.1 0.0
19/05:00pm 21.3 17.6 10.2 49 6.0 ESE 20 26 11 14 1024.8 1024.8 0.0
19/04:30pm 21.9 18.2 10.1 47 6.4 ESE 20 28 11 15 1024.5 1024.5 0.0
19/04:00pm 22.1 17.7 10.3 47 6.4 ESE 24 30 13 16 1024.4 1024.4 0.0
19/03:30pm 22.6 18.2 10.4 46 6.7 SE 24 32 13 17 1024.4 1024.4 0.0
19/03:00pm 22.8 18.5 10.9 47 6.6 ESE 24 32 13 17 1024.5 1024.5 0.0
19/02:30pm 23.3 19.0 10.7 45 7.0 ESE 24 35 13 19 1024.7 1024.7 0.0
19/02:00pm 22.9 18.2 10.7 46 6.7 ESE 26 37 14 20 1025.0 1025.0 0.0
19/01:30pm 23.8 18.9 11.2 45 7.0 SE 28 37 15 20 1025.5 1025.5 0.0
19/01:00pm 23.4 18.1 11.1 46 6.8 SE 30 39 16 21 1026.0 1026.0 0.0
19/12:30pm 24.2 19.5 11.9 46 7.0 SE 28 37 15 20 1026.2 1026.2 0.0
19/12:00pm 24.2 19.4 11.5 45 7.1 ESE 28 35 15 19 1026.5 1026.5 0.0
19/11:30am 24.2 18.8 12.2 47 6.8 ESE 32 41 17 22 1026.8 1026.8 0.0
19/11:00am 24.2 19.5 11.9 46 6.9 SE 28 37 15 20 1027.0 1027.0 0.0
19/10:30am 23.3 18.8 11.4 47 6.7 SE 26 37 14 20 1027.4 1027.4 0.0
19/10:00am 23.3 20.2 12.3 50 6.2 SE 20 30 11 16 1027.8 1027.8 0.0
19/09:30am 23.2 19.4 12.5 51 6.1 SE 24 32 13 17 1028.1 1028.1 0.0
19/09:00am 20.8 19.2 12.8 60 4.5 S 13 19 7 10 1028.4 1028.4 0.0
19/08:30am 21.4 18.7 11.7 54 5.4 S 17 26 9 14 1028.4 1028.4 0.0
19/08:00am 21.1 18.1 12.0 56 5.1 S 19 26 10 14 1028.2 1028.2 0.0
19/07:30am 20.4 18.7 12.6 61 4.4 SSW 13 19 7 10 1027.9 1027.9 0.0
19/07:00am 18.8 17.2 11.6 63 3.9 SSW 11 15 6 8 1027.8 1027.8 0.0
19/06:30am 18.6 18.1 12.8 69 3.3 SW 7 11 4 6 1027.5 1027.5 0.0
19/06:00am 16.5 16.0 12.5 77 2.2 WSW 7 9 4 5 1027.2 1027.2 0.0
19/05:30am 15.3 14.1 11.7 79 1.9 SSW 9 13 5 7 1026.9 1026.9 0.0
19/05:00am 15.6 14.0 11.4 76 2.2 SSW 11 13 6 7 1026.6 1026.6 0.0
19/04:30am 16.0 14.4 11.6 75 2.4 SSW 11 15 6 8 1026.4 1026.4 0.0
19/04:00am 16.2 14.6 11.6 74 2.5 SSW 11 15 6 8 1026.2 1026.2 0.0
19/03:30am 16.7 15.1 11.6 72 2.8 SSW 11 15 6 8 1026.1 1026.1 0.0
19/03:00am 17.4 16.0 12.1 71 2.9 SSW 11 17 6 9 1026.1 1026.1 0.0
19/02:30am 17.4 16.0 12.1 71 2.9 SSW 11 15 6 8 1026.0 1026.0 0.0
19/02:00am 17.3 16.0 12.4 73 2.7 SSW 11 15 6 8 1026.2 1026.2 0.0
19/01:30am 16.7 15.7 12.3 75 2.4 SSW 9 11 5 6 1026.3 1026.3 0.0
19/01:00am 17.1 15.4 12.4 74 2.6 SW 13 15 7 8 1026.6 1026.6 0.0
19/12:30am 16.9 15.2 12.6 76 2.4 SSW 13 17 7 9 1027.0 1027.0 0.0
19/12:00am 17.0 15.8 12.7 76 2.4 S 11 17 6 9 1027.1 1027.1 0.0
 
Date/Time
EST
Temp
°C
App
Temp
°C
Dew
Point
Rel
Hum
%
Delta-T
°C
Wind Press
QNH
hPa
Press
MSL
hPa
Rain
since 9 am
mm
Dir
 
Spd
km/h
Gust
km/h
Spd
kts
Gust
kts
18/11:30pm 16.8 15.6 12.7 77 2.3 S 11 17 6 9 1027.5 1027.5 0.0
18/11:00pm 17.0 16.1 12.7 76 2.4 S 9 13 5 7 1027.6 1027.6 0.0
18/10:30pm 17.6 16.1 13.1 75 2.5 S 13 20 7 11 1027.8 1027.8 0.0
18/10:00pm 17.6 17.1 13.7 78 2.2 S 9 13 5 7 1027.9 1027.9 0.0
18/09:30pm 17.9 16.4 13.2 74 2.6 S 13 19 7 10 1027.9 1027.9 0.0
18/09:00pm 17.7 16.2 13.0 74 2.6 SSW 13 17 7 9 1027.7 1027.7 0.0
18/08:30pm 17.6 16.0 12.9 74 2.6 SSW 13 17 7 9 1027.5 1027.5 0.0
18/08:00pm 17.7 16.1 12.8 73 2.7 SSW 13 19 7 10 1027.4 1027.4 0.0
18/07:30pm 18.1 16.6 13.0 72 2.9 SSW 13 19 7 10 1027.3 1027.3 0.0
18/07:00pm 18.1 16.6 13.2 73 2.7 S 13 19 7 10 1027.0 1027.0 0.0
18/06:30pm 18.8 16.3 13.6 72 3.0 S 19 24 10 13 1026.8 1026.8 0.0
18/06:00pm 18.6 16.8 13.2 71 3.0 S 15 19 8 10 1026.4 1026.4 0.0
18/05:30pm 19.0 17.1 14.1 73 2.8 S 17 24 9 13 1025.8 1025.8 0.0
18/05:00pm 19.3 16.7 13.9 71 3.1 SSE 20 32 11 17 1025.5 1025.5 0.0
18/04:30pm 20.5 17.0 13.5 64 4.0 SSE 24 39 13 21 1025.2 1025.2 0.0
18/04:00pm 21.3 18.1 14.2 64 4.1 SSE 24 35 13 19 1025.0 1025.0 0.0
18/03:30pm 21.8 17.5 13.2 58 4.9 SSE 28 41 15 22 1024.9 1024.9 0.0
18/03:00pm 22.2 16.6 12.2 53 5.6 SSE 33 44 18 24 1024.8 1024.8 0.0
18/02:30pm 23.2 18.3 12.5 51 6.1 SSE 30 39 16 21 1024.8 1024.8 0.0
18/02:00pm 22.1 17.2 12.4 54 5.5 SSE 30 39 16 21 1024.9 1024.9 0.0
18/01:30pm 23.5 18.8 13.1 52 6.0 SSE 30 39 16 21 1025.1 1025.1 0.0
18/01:00pm 23.2 18.8 12.8 52 5.9 SSE 28 37 15 20 1025.4 1025.4 0.0
18/12:30pm 23.0 18.7 12.0 50 6.2 SSE 26 37 14 20 1025.6 1025.6 0.0
18/12:00pm 24.1 19.2 13.6 52 6.1 SSE 32 41 17 22 1025.7 1025.7 0.0
18/11:30am 24.9 20.6 13.1 48 6.9 SE 28 41 15 22 1025.7 1025.7 0.0
18/11:00am 24.1 20.7 12.4 48 6.7 SSE 22 32 12 17 1026.1 1026.1 0.0
18/10:30am 23.5 19.9 13.1 52 6.0 SSE 24 30 13 16 1026.3 1026.3 0.0
18/10:00am 22.5 18.4 12.7 54 5.6 S 26 35 14 19 1026.5 1026.5 0.0
18/09:30am 22.6 18.8 13.7 57 5.2 S 26 35 14 19 1026.5 1026.5 0.0
18/09:00am 21.8 19.4 13.9 61 4.6 SSW 19 24 10 13 1026.6 1026.6 0.2

Other Formats:

Comma delimited format used in spreadsheet applications
http://www.bom.gov.au/fwo/IDQ60801/IDQ60801.94592.axf

JavaScript Object Notation format (JSON) in row-major order
http://www.bom.gov.au/fwo/IDQ60801/IDQ60801.94592.json